Time;durP1;ratioP1;P1;durP2;ratioP2;P2;SDS_P1;SDS_P2;PMS_P1;PMS_P2;Temp;Humidity;BMP_temperature;BMP_pressure;BME280_temperature;BME280_humidity;BME280_pressure;Samples;Min_cycle;Max_cycle;Signal;HPM_P1;HPM_P2
2022/05/02 00:00:00;;;;;;;5.13;4.60;;;14.80;75.70;;;15.28;50.01;98827.50;4977273;28;122973;-94
2022/05/02 00:02:28;;;;;;;5.30;4.77;;;14.80;75.90;;;15.25;50.33;98822.59;4976496;28;112164;-94
2022/05/02 00:04:54;;;;;;;6.70;4.47;;;14.70;75.90;;;15.23;50.30;98819.34;4985184;28;111809;-93
2022/05/02 00:07:21;;;;;;;5.60;4.60;;;14.70;76.10;;;15.21;50.28;98816.94;4973407;28;124270;-94
2022/05/02 00:09:47;;;;;;;4.93;4.20;;;14.70;76.30;;;15.19;50.18;98812.84;4994035;28;123759;-94
2022/05/02 00:12:14;;;;;;;4.53;4.13;;;14.60;76.40;;;15.17;50.37;98812.38;4977270;28;114174;-93
2022/05/02 00:14:40;;;;;;;5.93;5.33;;;14.60;76.50;;;15.16;50.42;98805.19;4976114;28;112815;-94
2022/05/02 00:17:08;;;;;;;5.57;4.90;;;14.60;76.70;;;15.14;50.36;98804.72;4973585;28;123149;-93
2022/05/02 00:19:34;;;;;;;5.20;4.43;;;14.60;76.80;;;15.13;50.44;98798.34;4989024;28;125392;-95
2022/05/02 00:22:01;;;;;;;5.13;4.33;;;14.60;77.00;;;15.11;50.35;98808.19;4976890;28;114335;-94
2022/05/02 00:24:28;;;;;;;4.87;4.10;;;14.50;77.00;;;15.10;50.42;98810.16;4991199;28;114208;-94
2022/05/02 00:26:56;;;;;;;5.23;4.40;;;14.50;77.10;;;15.08;50.51;98803.31;4979673;28;123787;-94
2022/05/02 00:29:24;;;;;;;5.00;4.33;;;14.50;77.20;;;15.05;50.65;98802.03;4973828;28;123729;-95
2022/05/02 00:31:51;;;;;;;5.30;4.80;;;14.50;77.40;;;15.03;50.81;98804.34;4984303;28;115337;-95
2022/05/02 00:34:18;;;;;;;5.10;4.60;;;14.50;77.40;;;14.99;50.88;98798.66;4983151;28;114837;-94
2022/05/02 00:36:44;;;;;;;6.30;5.53;;;16.50;79.60;;;14.92;50.93;98805.91;4984866;28;123933;-95
2022/05/02 00:39:11;;;;;;;7.00;5.30;;;14.30;77.50;;;14.86;51.06;98805.31;4981197;28;122853;-93
2022/05/02 00:41:38;;;;;;;5.57;5.00;;;14.30;77.70;;;14.85;50.95;98798.09;4982364;28;113680;-94
2022/05/02 00:44:05;;;;;;;5.30;4.70;;;14.30;77.90;;;14.84;51.19;98790.13;4995526;28;113177;-94
2022/05/02 00:46:32;;;;;;;6.83;5.20;;;14.30;78.00;;;14.83;51.01;98799.59;4980804;28;123686;-95
2022/05/02 00:48:59;;;;;;;6.13;4.40;;;14.30;78.10;;;14.82;51.01;98803.53;4995724;28;123680;-95
2022/05/02 00:51:25;;;;;;;5.37;4.53;;;14.20;78.10;;;14.79;51.00;98796.69;4984893;28;116728;-93
2022/05/02 00:53:52;;;;;;;4.90;4.40;;;14.20;78.20;;;14.78;51.11;98789.53;4983661;28;113802;-96
2022/05/02 00:56:23;;;;;;;4.67;4.27;;;14.20;78.30;;;14.78;51.21;98789.53;4999318;28;122881;-96
2022/05/02 00:58:50;;;;;;;4.50;4.10;;;14.20;78.40;;;14.76;51.23;98786.25;4983064;28;122980;-95
2022/05/02 01:01:18;;;;;;;4.97;4.33;;;14.20;78.40;;;14.75;51.25;98784.63;4998749;28;113999;-95
2022/05/02 01:03:44;;;;;;;5.07;4.57;;;14.20;78.50;;;14.74;51.08;98791.34;4979582;28;114035;-95
2022/05/02 01:08:56;;;;;;;5.10;4.60;;;14.10;78.70;;;14.69;51.39;98772.06;4985547;28;124272;-95
2022/05/02 01:11:23;;;;;;;5.47;4.97;;;14.10;79.40;;;14.69;51.26;98774.84;4977822;28;114333;-96
2022/05/02 01:13:50;;;;;;;5.00;4.50;;;14.10;78.80;;;14.69;51.16;98780.41;4997863;28;114304;-95
2022/05/02 01:16:27;;;;;;;4.67;4.17;;;14.10;78.80;;;14.68;50.95;98776.03;4977895;28;124130;-94
2022/05/02 01:18:58;;;;;;;4.10;3.70;;;14.10;78.90;;;14.65;51.39;98774.72;4980428;28;124292;-95
2022/05/02 01:21:29;;;;;;;5.90;4.47;;;14.10;79.00;;;14.65;51.65;98769.16;4993450;28;114448;-94
2022/05/02 01:24:02;;;;;;;5.00;4.50;;;14.00;79.00;;;14.64;51.43;98778.69;4994680;28;114955;-94
2022/05/02 01:26:29;;;;;;;4.73;4.23;;;14.00;79.10;;;14.61;51.44;98765.44;4974983;28;123605;-96
2022/05/02 01:28:58;;;;;;;5.10;4.50;;;14.00;79.20;;;14.60;51.49;98769.38;4970893;28;121752;-94
2022/05/02 01:31:26;;;;;;;4.80;4.40;;;14.00;79.30;;;14.60;51.44;98769.38;4988796;28;113447;-96
2022/05/02 01:33:54;;;;;;;6.67;4.80;;;14.00;80.10;;;14.60;51.57;98763.00;4991494;28;114130;-94
2022/05/02 01:36:23;;;;;;;5.13;4.63;;;14.00;79.50;;;14.58;51.62;98764.13;4977475;28;123022;-95
2022/05/02 01:38:50;;;;;;;6.63;5.00;;;14.00;79.60;;;14.56;51.78;98758.13;4978124;28;123560;-93
2022/05/02 01:41:17;;;;;;;5.03;4.53;;;13.90;79.60;;;14.55;51.78;98762.03;4994270;28;113102;-95
2022/05/02 01:43:44;;;;;;;5.67;5.00;;;13.90;79.70;;;14.54;51.89;98759.63;4979133;28;113518;-96
2022/05/02 01:46:13;;;;;;;6.30;4.83;;;13.90;80.50;;;14.53;51.70;98758.81;4977222;28;124208;-96
2022/05/02 01:48:39;;;;;;;5.40;4.73;;;13.90;80.60;;;14.54;51.86;98759.63;4976907;28;123887;-95
2022/05/02 01:51:06;;;;;;;5.40;4.90;;;13.90;80.10;;;14.52;51.98;98748.00;4979825;28;113412;-95
2022/05/02 01:53:32;;;;;;;6.40;5.37;;;13.90;80.30;;;14.47;51.93;98743.44;4996084;28;114167;-94
2022/05/02 01:56:00;;;;;;;6.37;4.77;;;13.80;80.20;;;14.45;51.90;98745.75;4977307;28;123367;-96
2022/05/02 01:58:26;;;;;;;5.03;4.37;;;13.80;80.30;;;14.44;52.49;98749.69;4976034;28;123687;-94
2022/05/02 02:00:53;;;;;;;6.60;5.70;;;13.80;80.40;;;14.42;52.19;98751.16;4976637;28;113622;-95
2022/05/02 02:03:20;;;;;;;5.83;4.87;;;13.80;80.50;;;14.41;52.19;98752.34;4997864;28;114319;-94
2022/05/02 02:05:49;;;;;;;5.53;4.80;;;13.80;80.60;;;14.41;52.21;98744.81;4979387;28;123604;-95
2022/05/02 02:08:21;;;;;;;4.90;4.40;;;13.80;80.70;;;14.42;52.04;98746.41;4975651;28;123983;-94
2022/05/02 02:10:49;;;;;;;5.53;4.63;;;13.80;80.70;;;14.43;52.22;98741.69;4993241;28;115279;-95
2022/05/02 02:13:16;;;;;;;5.57;5.07;;;13.80;80.70;;;14.42;52.24;98751.97;4981764;28;114198;-95
2022/05/02 02:15:43;;;;;;;5.63;4.87;;;13.80;80.70;;;14.41;52.19;98744.00;4976154;28;123235;-96
2022/05/02 02:18:10;;;;;;;5.73;5.20;;;13.80;80.80;;;14.40;52.20;98745.97;4979851;28;122711;-95
2022/05/02 02:20:38;;;;;;;5.37;4.70;;;12.90;79.90;;;14.40;52.16;98754.31;4989577;28;113328;-94
2022/05/02 02:23:04;;;;;;;5.57;5.07;;;13.80;80.90;;;14.40;52.19;98753.47;4991245;28;113354;-95
2022/05/02 02:25:32;;;;;;;5.23;4.73;;;13.80;80.90;;;14.40;52.18;98742.34;4986700;28;122374;-95
2022/05/02 02:28:02;;;;;;;5.20;4.70;;;13.80;80.90;;;14.39;52.21;98754.63;4987811;28;123755;-94
2022/05/02 02:30:29;;;;;;;4.80;4.13;;;13.80;80.90;;;14.36;51.88;98750.56;4997053;28;114154;-94
2022/05/02 02:32:57;;;;;;;5.50;4.27;;;13.70;80.90;;;14.36;52.23;98742.22;4997442;28;112040;-94
2022/05/02 02:35:24;;;;;;;5.13;4.63;;;13.80;81.00;;;14.36;52.35;98743.03;4977012;28;124745;-95
2022/05/02 02:37:51;;;;;;;5.23;4.73;;;13.70;81.00;;;14.35;52.20;98737.84;4981111;28;122375;-95
2022/05/02 02:40:20;;;;;;;5.20;4.70;;;13.70;81.10;;;14.32;52.39;98735.72;4979505;28;113605;-94
2022/05/02 02:42:47;;;;;;;5.10;4.60;;;13.70;81.00;;;14.33;52.21;98737.34;4984022;28;113753;-96
2022/05/02 02:45:14;;;;;;;5.00;4.50;;;13.70;81.10;;;14.32;52.44;98738.50;4979761;28;123738;-93
2022/05/02 02:47:41;;;;;;;4.90;4.40;;;13.70;81.20;;;14.33;52.33;98740.13;4995178;28;122042;-94
2022/05/02 02:50:09;;;;;;;6.87;5.33;;;13.70;81.20;;;14.32;52.34;98727.41;4978885;28;113609;-94
2022/05/02 02:52:35;;;;;;;5.73;4.50;;;13.70;81.30;;;14.32;52.45;98727.41;4994717;28;113013;-95
2022/05/02 02:55:02;;;;;;;5.40;4.57;;;13.70;81.40;;;14.32;52.53;98721.84;4975540;28;124124;-93
2022/05/02 02:57:29;;;;;;;5.23;4.63;;;13.70;81.40;;;14.30;52.26;98724.13;4981561;28;123574;-94
2022/05/02 02:59:57;;;;;;;5.10;4.60;;;13.70;81.50;;;14.30;52.54;98721.34;4979661;28;114268;-94
2022/05/02 03:02:23;;;;;;;4.93;4.43;;;13.70;81.50;;;14.30;52.58;98719.38;4979731;28;115460;-95
2022/05/02 03:07:36;;;;;;;5.23;4.40;;;13.70;81.70;;;14.28;52.68;98710.56;4997786;28;123792;-96
2022/05/02 03:10:04;;;;;;;5.07;4.67;;;13.70;81.80;;;14.28;52.64;98707.78;4981595;28;114254;-95
2022/05/02 03:12:31;;;;;;;7.57;4.67;;;13.70;81.90;;;14.28;52.53;98705.00;4993479;28;114396;-95
2022/05/02 03:14:57;;;;;;;6.53;4.90;;;13.70;82.00;;;14.27;52.69;98703.41;4981732;28;124441;-96
2022/05/02 03:17:24;;;;;;;6.13;4.90;;;13.60;82.10;;;14.28;52.73;98695.88;4979423;28;122940;-95
2022/05/02 03:19:51;;;;;;;5.37;4.83;;;13.60;82.00;;;14.28;52.80;98707.78;4983254;28;113338;-95
2022/05/02 03:22:18;;;;;;;4.83;4.33;;;13.60;82.00;;;14.27;52.70;98705.38;4978029;28;114101;-94
2022/05/02 03:24:45;;;;;;;4.57;4.13;;;13.60;82.10;;;14.29;52.66;98703.03;4984609;28;124518;-95
2022/05/02 03:27:11;;;;;;;4.33;3.93;;;13.60;82.30;;;14.28;52.91;98702.22;4981360;28;123201;-96
2022/05/02 03:29:40;;;;;;;5.27;4.60;;;13.60;82.20;;;14.27;52.98;98700.63;4993722;28;114331;-95
2022/05/02 03:32:08;;;;;;;6.40;5.13;;;13.60;82.30;;;14.28;53.02;98704.19;4980147;28;113145;-95
2022/05/02 03:34:34;;;;;;;6.53;5.43;;;13.60;82.40;;;14.25;52.84;98691.78;4980858;28;124202;-95
2022/05/02 03:37:01;;;;;;;5.30;4.80;;;13.60;82.40;;;14.24;52.92;98694.91;4981932;28;123744;-96
2022/05/02 03:39:28;;;;;;;5.40;4.90;;;13.60;82.50;;;14.23;52.92;98691.31;4980328;28;114251;-94
2022/05/02 03:41:54;;;;;;;7.07;4.73;;;13.60;82.60;;;14.25;53.16;98693.78;4998999;28;114159;-96
2022/05/02 03:44:21;;;;;;;5.13;4.63;;;13.60;82.60;;;14.25;53.15;98686.25;4979621;28;124638;-95
2022/05/02 03:46:48;;;;;;;5.27;4.77;;;13.60;82.70;;;14.27;53.03;98688.69;4993878;28;123778;-94
2022/05/02 03:49:15;;;;;;;6.27;5.00;;;13.60;82.80;;;14.28;53.07;98687.53;4976817;28;115119;-94
2022/05/02 03:51:41;;;;;;;5.40;4.90;;;13.60;82.80;;;14.27;52.90;98694.25;4997998;28;116151;-95
2022/05/02 03:54:08;;;;;;;5.27;4.37;;;13.60;82.80;;;14.28;53.08;98695.88;4979928;28;124363;-95
2022/05/02 03:56:35;;;;;;;5.13;4.53;;;13.60;82.90;;;14.27;53.15;98697.84;4992607;28;122991;-96
2022/05/02 03:59:01;;;;;;;5.60;5.10;;;13.60;82.90;;;14.27;53.08;98699.81;4994103;28;113612;-95
2022/05/02 04:01:28;;;;;;;5.80;5.20;;;13.60;83.00;;;14.23;53.25;98694.09;4974371;28;113408;-94
2022/05/02 04:03:55;;;;;;;6.07;5.10;;;13.60;83.00;;;14.19;53.22;98695.13;4977731;28;123353;-93
2022/05/02 04:06:28;;;;;;;6.03;4.90;;;13.60;83.10;;;14.17;53.37;98701.00;4978010;28;123204;-96
2022/05/02 04:08:54;;;;;;;5.73;4.80;;;13.60;83.20;;;14.17;53.34;98701.00;4975374;28;112812;-94
2022/05/02 04:11:21;;;;;;;6.50;4.77;;;13.50;83.10;;;14.18;53.38;98701.81;4978285;28;113103;-94
2022/05/02 04:13:47;;;;;;;5.57;4.40;;;13.60;83.40;;;14.20;53.57;98705.09;4975658;28;124592;-96
2022/05/02 04:16:14;;;;;;;5.83;5.23;;;13.60;83.50;;;14.19;53.53;98687.59;4992765;28;123833;-95
2022/05/02 04:18:41;;;;;;;4.63;4.13;;;13.60;83.60;;;14.21;53.47;98698.38;4978674;28;112422;-96
2022/05/02 04:21:09;;;;;;;5.60;4.57;;;13.60;83.70;;;14.21;53.18;98699.19;4987079;28;113177;-94
2022/05/02 04:23:36;;;;;;;6.40;4.80;;;13.60;83.70;;;14.24;53.69;98698.53;4975168;28;124529;-94
2022/05/02 04:26:03;;;;;;;5.90;5.30;;;13.60;83.90;;;14.26;53.72;98700.94;4975123;28;123395;-93
2022/05/02 04:28:30;;;;;;;5.33;4.80;;;13.60;83.90;;;14.26;53.43;98692.59;4993359;28;114271;-94
2022/05/02 04:30:57;;;;;;;6.70;5.70;;;13.60;84.00;;;14.26;53.71;98703.72;4976569;28;113968;-95
2022/05/02 04:33:24;;;;;;;6.20;5.33;;;13.60;84.00;;;14.24;53.79;98694.91;4977606;28;122911;-94
2022/05/02 04:35:50;;;;;;;7.37;5.63;;;13.60;84.00;;;14.23;53.85;98696.06;4977651;28;123900;-95
2022/05/02 04:38:17;;;;;;;7.47;5.93;;;13.60;84.10;;;14.21;54.03;98692.81;4991354;28;115540;-94
2022/05/02 04:40:43;;;;;;;7.87;5.40;;;13.60;84.20;;;14.18;54.06;98697.06;4991098;28;114511;-95
2022/05/02 04:43:10;;;;;;;5.67;5.10;;;13.60;84.30;;;14.20;53.98;98688.41;4975311;28;124663;-93
2022/05/02 04:45:37;;;;;;;5.80;5.20;;;13.60;84.30;;;14.22;53.94;98686.13;4973813;28;123852;-93
2022/05/02 04:48:04;;;;;;;6.70;5.10;;;13.60;84.60;;;14.25;54.04;98696.53;4973944;28;114194;-95
2022/05/02 04:50:30;;;;;;;7.00;5.00;;;13.60;84.70;;;14.28;54.16;98701.41;4976172;28;112663;-95
2022/05/02 04:52:58;;;;;;;5.27;4.70;;;13.60;84.70;;;14.30;54.02;98699.13;4976601;28;124108;-92
2022/05/02 04:55:26;;;;;;;5.57;5.03;;;13.60;84.70;;;14.33;54.02;98702.03;4977558;28;123418;-94
2022/05/02 04:57:58;;;;;;;6.40;5.37;;;13.60;84.70;;;14.33;53.95;98693.69;4976720;28;114407;-93
2022/05/02 05:00:24;;;;;;;8.13;7.33;;;13.70;84.80;;;14.30;53.96;98699.13;4971844;28;115372;-95
2022/05/02 05:02:51;;;;;;;10.83;7.30;;;13.70;84.80;;;14.25;53.93;98694.56;4994181;28;123425;-95
2022/05/02 05:05:18;;;;;;;14.83;7.50;;;13.60;84.60;;;14.24;53.95;98694.91;4975078;28;122953;-94
2022/05/02 05:07:45;;;;;;;6.67;5.73;;;13.60;84.60;;;14.24;54.05;98694.91;4972790;28;115139;-93
2022/05/02 05:10:11;;;;;;;8.10;6.30;;;13.60;84.60;;;14.23;54.06;98691.31;4985974;28;113171;-95
2022/05/02 05:13:05;;;;;;;8.73;6.97;;;13.60;84.80;;;14.25;54.21;98702.09;4974688;28;123286;-93
2022/05/02 05:16:21;;;;;;;6.43;5.83;;;13.60;84.80;;;14.27;53.91;98694.25;4974849;28;123597;-96
2022/05/02 05:18:50;;;;;;;6.30;5.50;;;13.60;84.80;;;14.29;54.17;98691.91;4976592;28;113694;-94
2022/05/02 05:21:41;;;;;;;7.83;6.00;;;13.60;84.80;;;14.33;54.09;98687.31;4992126;28;113068;-95
2022/05/02 05:24:50;;;;;;;8.17;5.70;;;13.70;85.00;;;14.37;54.01;98688.25;4972788;28;125809;-95
2022/05/02 05:28:07;;;;;;;11.20;7.37;;;13.70;85.00;;;14.41;54.30;98700.34;4981178;28;124096;-93
2022/05/02 05:30:45;;;;;;;8.63;6.23;;;13.80;85.40;;;14.44;54.31;98696.88;4979549;28;115147;-94
2022/05/02 05:33:53;;;;;;;8.57;5.97;;;13.80;85.60;;;14.49;54.46;98691.09;4976702;28;115303;-95
2022/05/02 05:36:32;;;;;;;9.10;6.57;;;13.80;85.70;;;14.54;54.34;98699.25;4977074;28;124513;-93
2022/05/02 05:39:10;;;;;;;8.40;7.10;;;13.90;85.90;;;14.54;54.36;98698.47;4978834;28;123769;-93
2022/05/02 05:42:04;;;;;;;8.17;7.00;;;13.90;85.90;;;14.51;54.44;98699.91;4994834;28;113226;-93
2022/05/02 05:44:54;;;;;;;9.30;7.43;;;13.90;85.90;;;14.52;54.74;98701.56;4974685;28;114068;-94
2022/05/02 05:47:48;;;;;;;9.60;8.30;;;13.90;86.10;;;14.53;54.42;98697.66;4992942;28;123497;-93
2022/05/02 05:50:15;;;;;;;9.50;8.30;;;13.90;86.10;;;14.51;54.92;98694.34;4978759;28;122798;-94
2022/05/02 05:53:15;;;;;;;12.97;9.67;;;13.90;86.40;;;14.48;54.99;98695.03;4978459;28;114396;-93
2022/05/02 05:56:09;;;;;;;10.80;8.67;;;13.90;86.40;;;14.50;54.88;98698.28;4974055;28;114177;-93
2022/05/02 05:59:07;;;;;;;9.80;8.17;;;13.90;86.40;;;14.52;54.86;98695.16;4994121;28;123615;-93
2022/05/02 06:01:56;;;;;;;8.20;7.00;;;13.90;86.50;;;14.62;54.75;98705.09;4974989;28;122760;-95
2022/05/02 06:04:25;;;;;;;14.60;8.97;;;14.00;86.60;;;14.66;54.93;98683.78;4978734;28;114311;-93
2022/05/02 06:06:54;;;;;;;11.33;9.47;;;14.00;86.60;;;14.70;54.94;98695.84;4984052;28;114467;-94
2022/05/02 06:09:23;;;;;;;10.20;8.87;;;14.00;86.60;;;14.74;54.86;98696.78;4985553;28;123265;-93
2022/05/02 06:11:52;;;;;;;11.27;8.70;;;14.10;86.70;;;14.79;54.97;98693.78;4975785;28;122589;-93
2022/05/02 06:14:26;;;;;;;13.80;9.50;;;14.10;86.60;;;14.85;54.62;98692.41;4980882;28;114338;-92
2022/05/02 06:19:46;;;;;;;10.70;8.50;;;14.20;86.60;;;14.92;54.57;98692.66;4999928;28;125800;-91
2022/05/02 06:22:18;;;;;;;11.60;8.33;;;14.30;86.60;;;14.99;54.54;98695.69;4992187;28;124363;-94
2022/05/02 06:24:48;;;;;;;10.23;9.07;;;14.30;86.50;;;15.08;54.35;98701.16;4997479;28;114428;-94
2022/05/02 06:27:15;;;;;;;12.80;9.93;;;14.40;86.50;;;15.11;54.32;98696.88;4991205;28;115015;-91
2022/05/02 06:29:42;;;;;;;11.90;10.17;;;14.40;86.30;;;15.15;54.36;98693.06;4980544;28;123863;-91
2022/05/02 06:32:12;;;;;;;9.17;8.23;;;15.00;86.80;;;15.17;54.00;98701.88;4981654;28;123385;-91
2022/05/02 06:34:39;;;;;;;9.40;8.43;;;14.50;86.10;;;15.22;54.03;98687.72;4983103;28;113549;-91
2022/05/02 06:37:26;;;;;;;9.50;8.40;;;14.50;86.10;;;15.31;54.10;98693.19;4995301;28;114012;-90
2022/05/02 06:40:19;;;;;;;9.70;7.70;;;14.60;86.10;;;15.39;53.95;98692.28;4976600;28;124106;-92
2022/05/02 06:42:57;;;;;;;11.67;8.90;;;14.70;86.10;;;15.44;53.61;98692.03;4980770;28;122877;-93
2022/05/02 06:46:01;;;;;;;11.13;10.03;;;14.80;85.90;;;15.48;53.54;98691.38;4990924;28;113303;-91
2022/05/02 06:48:55;;;;;;;12.47;10.80;;;14.80;85.80;;;15.49;53.62;98696.56;4980716;28;114202;-95
2022/05/02 06:51:27;;;;;;;10.70;9.60;;;14.90;85.70;;;15.54;53.38;98690.75;4979345;28;123908;-94
2022/05/02 06:54:21;;;;;;;13.23;10.07;;;14.90;85.80;;;15.64;53.20;98695.06;4992441;28;123928;-93
2022/05/02 06:57:33;;;;;;;11.27;9.30;;;15.00;85.50;;;15.71;53.19;98689.75;4992493;28;113722;-94
2022/05/02 07:00:10;;;;;;;11.10;8.73;;;15.00;85.30;;;15.80;52.86;98695.22;4976101;28;114239;-90
2022/05/02 07:02:55;;;;;;;14.97;11.23;;;15.10;85.20;;;15.89;52.77;98687.53;4978479;28;124014;-93
2022/05/02 07:05:46;;;;;;;12.53;10.60;;;15.20;85.00;;;15.93;52.53;98684.84;4973800;28;125527;-92
2022/05/02 07:08:28;;;;;;;11.80;9.67;;;15.20;84.70;;;15.98;52.48;98690.16;4980001;28;114682;-91
2022/05/02 07:11:20;;;;;;;12.60;10.90;;;15.30;84.70;;;16.01;52.35;98689.47;4993864;28;113341;-92
2022/05/02 07:14:39;;;;;;;11.37;9.73;;;15.30;84.30;;;16.02;52.28;98691.91;4976863;28;124216;-93
2022/05/02 07:17:19;;;;;;;11.50;9.90;;;15.40;84.30;;;16.07;52.24;98690.88;4977194;28;123905;-92
2022/05/02 07:20:02;;;;;;;10.90;9.43;;;15.40;84.20;;;16.16;52.39;98688.75;4978016;28;115253;-90
2022/05/02 07:22:39;;;;;;;9.30;7.53;;;15.50;84.20;;;16.26;52.14;98688.25;4974596;28;114648;-91
2022/05/02 07:25:14;;;;;;;14.67;11.53;;;15.60;84.20;;;16.37;51.75;98693.34;4977958;28;124039;-94
2022/05/02 07:28:07;;;;;;;12.90;11.40;;;15.70;84.60;;;16.37;51.59;98687.75;4976760;28;123019;-95
2022/05/02 07:30:35;;;;;;;14.13;10.73;;;15.70;83.70;;;16.42;51.42;98693.91;4974212;28;114908;-93
2022/05/02 07:33:03;;;;;;;10.00;8.33;;;15.70;83.60;;;16.49;51.52;98688.50;4977276;28;113645;-91
2022/05/02 07:35:32;;;;;;;10.23;8.83;;;15.80;83.60;;;16.56;51.41;98694.31;4970932;28;124074;-88
2022/05/02 07:37:59;;;;;;;9.97;8.97;;;15.90;83.50;;;16.65;51.44;98694.13;4995342;28;122904;-92
2022/05/02 07:40:26;;;;;;;11.60;9.40;;;16.00;83.60;;;16.75;51.11;98688.06;4990338;28;114226;-85
2022/05/02 07:42:54;;;;;;;11.90;10.63;;;16.00;83.30;;;16.79;50.81;98690.97;4991635;28;114307;-89
2022/05/02 07:45:28;;;;;;;11.30;9.47;;;16.10;83.00;;;16.80;50.86;98695.41;4977144;28;123312;-89
2022/05/02 07:48:00;;;;;;;11.53;9.50;;;16.10;82.90;;;16.84;50.87;98682.34;4991586;28;124237;-88
2022/05/02 07:50:28;;;;;;;10.37;9.00;;;16.20;82.90;;;16.92;50.70;98686.13;4975958;28;113528;-90
2022/05/02 07:52:57;;;;;;;12.57;9.60;;;16.20;82.70;;;16.99;50.51;98678.78;4988942;28;113586;-89
2022/05/02 07:55:24;;;;;;;10.20;8.80;;;16.30;82.50;;;17.08;50.29;98688.94;4991085;28;124698;-92
2022/05/02 07:57:54;;;;;;;9.13;7.87;;;16.30;82.40;;;17.15;50.18;98689.97;4976470;28;124665;-90
2022/05/02 08:00:22;;;;;;;9.63;8.40;;;16.40;82.30;;;17.22;49.77;98680.94;4975881;28;112761;-89
2022/05/02 08:02:49;;;;;;;11.40;8.93;;;16.50;82.00;;;17.29;49.80;98678.34;4970398;28;112363;-89
2022/05/02 08:05:21;;;;;;;11.57;9.00;;;16.60;81.80;;;17.36;49.32;98680.50;4991091;28;123866;-89
2022/05/02 08:07:51;;;;;;;11.67;9.20;;;16.60;81.50;;;17.39;49.38;98682.59;4991073;28;123999;-94
2022/05/02 08:11:08;;;;;;;12.63;10.70;;;16.70;81.40;;;17.38;49.39;98681.78;4985091;28;113876;-89
2022/05/02 08:13:59;;;;;;;14.47;12.93;;;16.70;80.90;;;17.33;49.05;98684.00;4978658;28;114656;-94
2022/05/02 08:16:33;;;;;;;10.50;9.40;;;16.70;80.60;;;17.36;49.34;98678.53;4982793;28;123706;-92
2022/05/02 08:19:43;;;;;;;14.43;11.37;;;16.70;80.70;;;17.40;49.02;98673.81;4996837;28;123375;-92
2022/05/02 08:29:16;;;;;;;8.83;7.93;;;16.90;80.30;;;17.60;48.75;98677.53;4976522;28;124762;-93
2022/05/02 08:32:10;;;;;;;13.53;8.97;;;16.90;80.20;;;17.70;48.37;98675.34;4992825;28;122562;-92
2022/05/02 08:34:40;;;;;;;13.63;10.70;;;17.00;79.90;;;17.75;48.33;98677.84;4981903;28;113966;-94
2022/05/02 08:37:47;;;;;;;12.80;10.87;;;17.10;79.80;;;17.74;48.12;98665.88;4982292;28;113961;-94
2022/05/02 08:40:26;;;;;;;12.90;10.30;;;17.10;79.20;;;17.76;47.98;98660.72;4998934;28;123188;-92
2022/05/02 08:43:39;;;;;;;19.40;11.50;;;17.20;79.20;;;17.80;47.72;98663.63;4983325;28;122847;-92
2022/05/02 08:47:03;;;;;;;12.60;11.00;;;17.20;78.70;;;17.79;47.66;98664.81;4984244;28;114846;-92
2022/05/02 08:49:48;;;;;;;12.17;9.50;;;17.20;78.50;;;17.88;47.60;98665.41;4979384;28;113295;-94
2022/05/02 08:52:43;;;;;;;8.53;7.57;;;17.30;78.50;;;17.97;47.40;98660.41;5000444;28;124552;-91
2022/05/02 08:55:39;;;;;;;12.47;10.13;;;17.30;78.20;;;18.06;46.68;98660.22;4981649;28;124209;-94
2022/05/02 08:58:46;;;;;;;11.20;9.63;;;17.40;77.10;;;18.11;46.28;98657.16;5006184;28;113374;-92
2022/05/02 09:01:40;;;;;;;12.80;9.80;;;17.50;76.80;;;18.14;46.29;98658.41;5012262;28;112104;-94
2022/05/02 09:04:34;;;;;;;8.87;6.97;;;17.50;76.70;;;18.21;46.40;98659.34;5014340;28;122137;-94
2022/05/02 09:07:38;;;;;;;9.90;7.90;;;17.60;76.90;;;18.26;46.15;98659.06;4998322;28;122678;-93
2022/05/02 09:10:15;;;;;;;8.07;7.07;;;17.60;76.30;;;18.33;46.01;98658.41;5000793;28;113530;-92
2022/05/02 09:13:16;;;;;;;9.40;7.50;;;17.70;76.40;;;18.39;46.01;98656.94;5005645;28;113385;-93
2022/05/02 09:16:35;;;;;;;8.17;6.77;;;17.70;76.20;;;18.49;46.09;98649.94;5007243;28;123559;-94
2022/05/02 09:19:33;;;;;;;8.03;7.23;;;17.90;76.50;;;18.60;45.74;98655.75;4998636;28;124200;-94
2022/05/02 09:22:24;;;;;;;9.00;6.90;;;17.90;76.00;;;18.67;45.32;98658.66;4984552;28;114673;-91
2022/05/02 09:25:10;;;;;;;8.07;7.27;;;18.00;75.80;;;18.69;45.21;98659.13;4982480;28;114070;-90
2022/05/02 09:27:54;;;;;;;9.80;7.10;;;18.00;75.40;;;18.76;45.51;98662.09;4999729;28;121644;-92
2022/05/02 09:31:10;;;;;;;11.30;9.30;;;18.10;75.60;;;18.83;45.01;98659.41;4993992;28;123538;-91
2022/05/02 09:34:00;;;;;;;8.40;6.67;;;18.20;75.10;;;18.89;45.07;98645.94;4971929;28;114241;-92
2022/05/02 09:37:04;;;;;;;10.37;8.30;;;18.30;75.20;;;18.90;45.13;98651.16;4977904;28;114051;-91
2022/05/02 09:39:48;;;;;;;8.70;7.57;;;18.30;74.70;;;18.89;44.73;98651.53;4992137;28;124339;-94
2022/05/02 09:42:40;;;;;;;8.43;7.57;;;18.30;74.50;;;18.92;44.51;98645.19;5013295;28;121503;-95
2022/05/02 09:51:35;;;;;;;7.33;5.50;;;18.40;73.60;;;19.03;43.89;98646.19;4992966;28;124851;-95
2022/05/02 10:01:32;;;;;;;8.30;6.07;;;18.50;71.70;;;19.09;43.30;98627.91;4990157;28;114250;-93
2022/05/02 10:03:58;;;;;;;7.20;5.90;;;18.50;71.80;;;19.17;43.27;98623.22;5003435;28;122683;-94
2022/05/02 10:06:35;;;;;;;8.33;7.17;;;18.60;72.20;;;19.24;42.97;98626.16;4987184;28;123436;-91
2022/05/02 10:09:36;;;;;;;9.60;7.03;;;18.60;71.70;;;19.23;42.55;98626.53;4981562;28;115390;-93
2022/05/02 10:12:54;;;;;;;9.90;7.20;;;18.70;70.90;;;19.23;42.53;98620.91;4982744;28;113672;-92
2022/05/02 10:15:40;;;;;;;9.20;7.13;;;18.70;70.80;;;19.27;42.60;98622.59;4981819;28;123507;-91
2022/05/02 10:19:01;;;;;;;7.73;6.63;;;18.70;70.60;;;19.23;42.41;98610.50;4980523;28;122753;-92
2022/05/02 10:21:56;;;;;;;8.03;7.20;;;18.70;70.20;;;19.27;42.13;98610.59;4967634;28;114747;-91
2022/05/02 10:24:58;;;;;;;8.17;7.00;;;18.70;69.90;;;19.27;42.30;98605.78;5002916;28;113835;-93
2022/05/02 10:28:18;;;;;;;8.83;7.50;;;18.80;69.90;;;19.28;41.91;98604.59;5006449;28;123793;-91
2022/05/02 10:31:11;;;;;;;8.00;7.10;;;18.80;68.90;;;19.35;41.42;98601.13;4979295;28;124091;-93
2022/05/02 10:33:49;;;;;;;8.27;7.40;;;18.90;68.70;;;19.37;41.15;98596.75;4986386;28;115103;-93
2022/05/02 10:36:27;;;;;;;6.77;5.73;;;18.80;67.80;;;19.36;41.54;98603.53;4996678;28;113913;-92
2022/05/02 10:39:06;;;;;;;5.60;5.00;;;18.80;68.40;;;19.44;41.71;98598.84;4979309;28;124861;-94
2022/05/02 10:41:48;;;;;;;5.83;5.23;;;18.90;68.80;;;19.52;41.47;98594.16;4995081;28;122369;-92
2022/05/02 10:44:17;;;;;;;8.00;5.80;;;19.00;68.60;;;19.56;41.06;98595.03;4980677;28;113165;-94
2022/05/02 10:46:48;;;;;;;8.33;5.30;;;19.00;68.00;;;19.58;41.20;98599.06;4978719;28;112186;-93
2022/05/02 10:49:59;;;;;;;5.87;4.70;;;19.10;68.10;;;19.60;41.15;98584.69;4992012;28;124226;-92
2022/05/02 10:52:51;;;;;;;5.00;4.50;;;19.10;68.10;;;19.68;41.18;98586.44;4999849;28;123270;-89
2022/05/02 10:55:27;;;;;;;4.50;4.10;;;19.20;68.20;;;19.74;41.25;98584.91;4996013;28;113654;-92
2022/05/02 10:58:01;;;;;;;3.87;3.57;;;19.20;68.10;;;19.81;40.95;98584.22;4992059;28;115459;-94
2022/05/02 11:00:29;;;;;;;4.33;3.93;;;19.30;68.10;;;19.90;40.98;98575.50;4977543;28;124969;-90
2022/05/02 11:03:23;;;;;;;5.00;4.50;;;19.30;67.90;;;19.97;40.31;98576.41;4983221;28;124290;-93
2022/05/02 11:06:20;;;;;;;4.77;4.30;;;19.40;66.90;;;20.05;39.90;98572.50;4980801;28;114447;-93
2022/05/02 11:08:54;;;;;;;5.10;4.20;;;19.40;66.30;;;20.10;39.66;98571.38;5001654;28;114343;-94
2022/05/02 11:11:31;;;;;;;4.87;4.40;;;19.50;65.90;;;20.13;39.77;98567.78;4983257;28;122287;-93
2022/05/02 11:14:39;;;;;;;4.97;4.27;;;19.50;65.60;;;20.23;39.53;98567.13;4981500;28;124168;-94
2022/05/02 11:17:36;;;;;;;5.53;4.90;;;19.60;65.50;;;20.26;38.81;98557.94;4976078;28;114351;-91